Terminal Aerodrome Forecast
Issued by NWS

Home | Current Version | Previous Version | Text Only | Print | Product List | Glossary On
Versions: 1 2 3 4 5 6 7 8 9 10 11 12 13
000
FTUS43 KGLD 201140
TAFMCK
TAF
KMCK 201140Z 2012/2112 16008KT P6SM FEW250 WS020/19040KT
     FM201600 17015G23KT P6SM SCT250
     FM210000 17013KT P6SM FEW250 WS020/19030KT
     FM210600 18015G23KT P6SM FEW250 WS020/20045KT
     FM210800 21014G20KT P6SM SCT200 WS020/21040KT
     FM211000 30014G20KT P6SM SCT200 WS020/28035KT=

USA.gov is the U.S. government's official web portal to all federal, state and local government web resources and services.